Time;durP1;ratioP1;P1;durP2;ratioP2;P2;SDS_P1;SDS_P2;PMS_P1;PMS_P2;Temp;Humidity;BMP_temperature;BMP_pressure;BME280_temperature;BME280_humidity;BME280_pressure;Samples;Min_cycle;Max_cycle;Signal;HPM_P1;HPM_P2
2023/05/06 00:02:52;;;;;;;5.77;4.83;;;15.40;99.90;;;;;;10479591;28;20207;-71
2023/05/06 00:07:53;;;;;;;6.47;5.00;;;15.40;99.90;;;;;;10465830;28;20326;-72
2023/05/06 00:12:53;;;;;;;5.30;4.23;;;15.30;99.90;;;;;;10472336;28;20268;-71
2023/05/06 00:17:54;;;;;;;5.47;4.47;;;15.30;99.90;;;;;;10472884;28;20246;-72
2023/05/06 00:22:55;;;;;;;8.40;4.80;;;15.20;99.90;;;;;;10470952;28;20287;-71
2023/05/06 00:27:55;;;;;;;6.23;4.40;;;15.20;99.90;;;;;;10464941;28;20834;-72
2023/05/06 00:32:56;;;;;;;6.67;4.60;;;15.20;99.90;;;;;;10474437;28;20749;-72
2023/05/06 00:38:05;;;;;;;7.07;4.37;;;15.20;99.90;;;;;;10465720;28;20215;-73
2023/05/06 00:43:05;;;;;;;4.80;4.23;;;15.10;99.90;;;;;;10479716;28;20222;-72
2023/05/06 00:48:06;;;;;;;5.90;4.00;;;15.00;99.90;;;;;;10468831;28;20234;-73
2023/05/06 00:53:09;;;;;;;6.87;4.27;;;15.00;99.90;;;;;;10467483;28;20313;-73
2023/05/06 00:58:09;;;;;;;4.87;3.93;;;15.00;99.90;;;;;;10471441;28;20214;-72
2023/05/06 01:03:10;;;;;;;5.73;3.50;;;14.90;99.90;;;;;;10472657;28;20699;-72
2023/05/06 01:08:36;;;;;;;3.97;3.43;;;14.70;99.90;;;;;;10465755;28;20215;-74
2023/05/06 01:14:12;;;;;;;6.07;3.87;;;14.60;99.90;;;;;;10470717;28;20268;-73
2023/05/06 01:19:47;;;;;;;5.27;3.33;;;14.50;99.90;;;;;;10475005;28;20342;-72
2023/05/06 01:24:48;;;;;;;4.03;3.17;;;14.30;99.90;;;;;;10472141;28;20227;-74
2023/05/06 01:29:49;;;;;;;4.70;3.37;;;14.30;99.90;;;;;;10475509;28;20597;-73
2023/05/06 01:35:08;;;;;;;6.67;3.77;;;14.30;99.90;;;;;;10468051;28;20301;-73
2023/05/06 01:40:09;;;;;;;4.57;3.60;;;14.30;99.90;;;;;;10473875;28;20861;-73
2023/05/06 01:45:12;;;;;;;4.40;3.33;;;14.30;99.90;;;;;;10478156;28;20576;-73
2023/05/06 01:50:13;;;;;;;5.53;3.53;;;14.10;99.90;;;;;;10477919;28;20247;-73
2023/05/06 01:55:14;;;;;;;4.77;3.23;;;14.00;99.90;;;;;;10471835;28;20712;-73
2023/05/06 02:00:15;;;;;;;4.03;2.90;;;14.00;99.90;;;;;;10472838;28;20184;-73
2023/05/06 02:05:16;;;;;;;5.57;3.07;;;13.90;99.90;;;;;;10476979;28;20190;-73
2023/05/06 02:10:17;;;;;;;4.03;3.10;;;13.80;99.90;;;;;;10488066;28;20573;-74
2023/05/06 02:15:18;;;;;;;4.53;2.97;;;13.70;99.90;;;;;;10475813;28;20181;-73
2023/05/06 02:20:19;;;;;;;4.93;2.80;;;13.70;99.90;;;;;;10473671;28;20599;-73
2023/05/06 02:25:21;;;;;;;5.70;3.17;;;13.60;99.90;;;;;;10471289;28;20215;-73
2023/05/06 02:30:21;;;;;;;4.67;3.13;;;13.60;99.90;;;;;;10470336;28;20211;-73
2023/05/06 02:35:22;;;;;;;4.03;2.90;;;13.60;99.90;;;;;;10469229;28;20568;-72
2023/05/06 02:40:23;;;;;;;3.53;2.93;;;13.50;99.90;;;;;;10470893;28;20176;-72
2023/05/06 02:45:23;;;;;;;4.87;2.73;;;13.50;99.90;;;;;;10473668;28;20226;-73
2023/05/06 02:50:24;;;;;;;5.97;3.30;;;13.40;99.90;;;;;;10468662;28;20322;-73
2023/05/06 02:55:25;;;;;;;7.00;3.13;;;13.40;99.90;;;;;;10475086;28;20685;-72
2023/05/06 03:00:25;;;;;;;4.30;2.80;;;13.30;99.90;;;;;;10472806;28;20215;-73
2023/05/06 03:05:26;;;;;;;4.00;2.77;;;13.30;99.90;;;;;;10479500;28;20831;-74
2023/05/06 03:10:26;;;;;;;4.40;3.47;;;13.20;99.90;;;;;;10480292;28;20238;-73
2023/05/06 03:15:27;;;;;;;4.37;3.53;;;13.20;99.90;;;;;;10478989;28;20273;-73
2023/05/06 03:20:27;;;;;;;3.43;3.13;;;13.10;99.90;;;;;;10476548;28;20256;-73
2023/05/06 03:25:28;;;;;;;4.17;3.50;;;13.20;99.90;;;;;;10467731;28;20220;-74
2023/05/06 03:30:28;;;;;;;5.43;3.83;;;13.10;99.90;;;;;;10470700;28;20223;-73
2023/05/06 03:35:29;;;;;;;4.03;3.63;;;13.10;99.90;;;;;;10465421;28;20212;-73
2023/05/06 03:40:30;;;;;;;4.47;3.47;;;13.00;99.90;;;;;;10471420;28;20314;-73
2023/05/06 03:45:30;;;;;;;5.93;4.00;;;12.90;99.90;;;;;;10472899;28;20215;-73
2023/05/06 03:50:31;;;;;;;4.70;3.40;;;12.90;99.90;;;;;;10472946;28;20762;-72
2023/05/06 03:55:32;;;;;;;3.87;3.30;;;12.80;99.90;;;;;;10472442;28;20646;-73
2023/05/06 04:00:32;;;;;;;5.00;3.40;;;12.90;99.90;;;;;;10472728;28;20662;-72
2023/05/06 04:05:33;;;;;;;5.53;4.03;;;12.80;99.90;;;;;;10474091;28;20220;-73
2023/05/06 04:10:40;;;;;;;5.43;4.37;;;12.80;99.90;;;;;;10471365;28;20234;-73
2023/05/06 04:15:41;;;;;;;9.53;4.03;;;12.80;99.90;;;;;;10471748;28;20230;-73
2023/05/06 04:20:41;;;;;;;5.43;3.47;;;12.90;99.90;;;;;;10464361;28;20215;-73
2023/05/06 04:25:47;;;;;;;5.30;3.40;;;12.90;99.90;;;;;;10463868;28;20598;-73
2023/05/06 04:30:48;;;;;;;5.97;3.73;;;13.00;99.90;;;;;;10473076;28;20228;-74
2023/05/06 04:35:52;;;;;;;5.97;4.10;;;13.10;99.90;;;;;;10470840;28;20689;-74
2023/05/06 04:40:54;;;;;;;7.57;4.00;;;13.20;99.90;;;;;;10467597;28;20219;-73
2023/05/06 04:45:58;;;;;;;6.67;3.93;;;13.40;99.90;;;;;;10463084;28;20226;-74
2023/05/06 04:50:59;;;;;;;5.33;4.07;;;13.60;99.90;;;;;;10477270;28;20311;-72
2023/05/06 04:56:00;;;;;;;5.73;3.80;;;13.80;99.90;;;;;;10467332;28;20302;-73
2023/05/06 05:01:03;;;;;;;6.43;3.87;;;14.10;99.90;;;;;;10461620;28;20216;-73
2023/05/06 05:06:04;;;;;;;6.87;4.40;;;14.30;99.90;;;;;;10473790;28;20740;-73
2023/05/06 05:11:05;;;;;;;4.17;3.73;;;14.50;99.90;;;;;;10456575;28;20228;-73
2023/05/06 05:16:06;;;;;;;4.67;3.63;;;15.20;99.90;;;;;;10469646;28;20230;-73
2023/05/06 05:21:07;;;;;;;6.67;3.90;;;16.20;99.90;;;;;;10467672;28;20215;-73
2023/05/06 05:26:07;;;;;;;7.30;4.27;;;16.50;99.90;;;;;;10470472;28;20287;-73
2023/05/06 05:31:08;;;;;;;4.43;4.00;;;16.40;99.90;;;;;;10465969;28;20215;-73
2023/05/06 05:36:11;;;;;;;9.30;3.87;;;16.20;99.90;;;;;;10466084;28;20333;-73
2023/05/06 05:41:11;;;;;;;5.93;3.93;;;16.20;99.90;;;;;;10466591;28;20596;-73
2023/05/06 05:46:12;;;;;;;5.80;3.93;;;16.20;99.90;;;;;;10465888;28;20227;-74
2023/05/06 05:51:13;;;;;;;6.00;3.70;;;16.60;99.90;;;;;;10474263;28;20221;-73
2023/05/06 05:56:14;;;;;;;5.03;3.83;;;16.90;99.90;;;;;;10470521;28;20237;-73
2023/05/06 06:01:14;;;;;;;4.33;3.83;;;17.00;99.90;;;;;;10465622;28;20231;-73
2023/05/06 06:06:15;;;;;;;4.00;3.60;;;17.60;99.90;;;;;;10470515;28;20701;-74
2023/05/06 06:11:16;;;;;;;5.77;3.10;;;21.20;99.90;;;;;;10477795;28;20220;-74
2023/05/06 06:16:16;;;;;;;4.03;2.30;;;24.50;99.90;;;;;;10473363;28;20222;-73
2023/05/06 06:21:17;;;;;;;4.50;2.53;;;26.80;98.20;;;;;;10474928;28;20234;-74
2023/05/06 06:26:17;;;;;;;3.20;2.40;;;28.80;90.40;;;;;;10474873;28;20238;-73
2023/05/06 06:31:24;;;;;;;2.70;2.50;;;30.80;71.80;;;;;;10471225;28;20316;-73
2023/05/06 06:36:24;;;;;;;4.37;2.63;;;31.70;62.30;;;;;;10469825;28;20223;-74
2023/05/06 06:41:26;;;;;;;3.67;2.40;;;31.80;58.80;;;;;;10472031;28;20226;-74
2023/05/06 06:46:27;;;;;;;3.60;2.37;;;32.20;57.30;;;;;;10487017;28;20228;-74
2023/05/06 06:51:28;;;;;;;2.93;1.70;;;32.10;55.20;;;;;;10484955;28;20846;-74
2023/05/06 06:56:29;;;;;;;2.50;1.70;;;32.50;53.00;;;;;;10475242;28;20238;-74
2023/05/06 07:01:30;;;;;;;3.43;1.60;;;33.00;51.70;;;;;;10481864;28;20964;-74
2023/05/06 07:06:30;;;;;;;2.07;1.70;;;32.60;51.60;;;;;;10473381;28;20215;-74
2023/05/06 07:11:34;;;;;;;3.30;1.70;;;32.80;50.40;;;;;;10475352;28;20220;-74
2023/05/06 07:16:34;;;;;;;3.43;2.00;;;33.20;49.70;;;;;;10473738;28;20222;-74
2023/05/06 07:21:35;;;;;;;2.20;1.77;;;33.80;48.50;;;;;;10478820;28;20219;-75
2023/05/06 07:26:36;;;;;;;7.70;1.70;;;34.60;46.70;;;;;;10467243;28;20327;-74
2023/05/06 07:31:37;;;;;;;2.07;1.60;;;35.00;46.40;;;;;;10473960;28;20690;-73
2023/05/06 07:36:39;;;;;;;2.77;1.40;;;36.00;43.80;;;;;;10472553;28;20215;-74
2023/05/06 07:41:40;;;;;;;4.03;1.50;;;36.50;42.50;;;;;;10465764;28;20302;-74
2023/05/06 07:46:41;;;;;;;2.50;1.43;;;36.60;41.30;;;;;;10480129;28;20250;-74
2023/05/06 07:51:42;;;;;;;3.37;2.07;;;37.00;40.50;;;;;;10465794;28;20250;-75
2023/05/06 07:56:43;;;;;;;3.37;2.10;;;36.80;40.80;;;;;;10464596;28;20797;-74
2023/05/06 08:01:44;;;;;;;3.53;1.80;;;36.10;41.20;;;;;;10465537;28;20318;-74
2023/05/06 08:06:44;;;;;;;2.53;1.50;;;36.00;40.70;;;;;;10473249;28;20223;-75
2023/05/06 08:11:45;;;;;;;3.07;1.60;;;36.00;41.00;;;;;;10472137;28;20355;-74
2023/05/06 08:16:46;;;;;;;2.73;2.17;;;36.30;42.00;;;;;;10464722;28;20836;-75
2023/05/06 08:21:47;;;;;;;3.20;1.77;;;37.00;40.00;;;;;;10480797;28;20314;-74
2023/05/06 08:26:48;;;;;;;2.47;2.27;;;37.80;39.70;;;;;;10463455;28;20600;-75
2023/05/06 08:31:48;;;;;;;4.10;2.30;;;37.30;39.70;;;;;;10472625;28;20207;-74
2023/05/06 08:36:49;;;;;;;3.10;1.93;;;35.30;41.90;;;;;;10464088;28;20243;-74
2023/05/06 08:41:55;;;;;;;3.03;1.80;;;34.60;42.10;;;;;;10470731;28;20234;-73
2023/05/06 08:46:56;;;;;;;1.87;1.13;;;32.90;44.50;;;;;;10477465;28;20230;-74
2023/05/06 08:51:57;;;;;;;2.23;1.33;;;33.80;43.10;;;;;;10469620;28;20698;-75
2023/05/06 08:57:01;;;;;;;3.67;1.63;;;35.70;40.10;;;;;;10487583;28;20225;-74
2023/05/06 09:02:04;;;;;;;1.60;1.00;;;37.10;38.50;;;;;;10473972;28;20232;-74
2023/05/06 09:07:04;;;;;;;3.60;1.40;;;35.90;39.50;;;;;;10469197;28;20231;-74
2023/05/06 09:12:14;;;;;;;1.70;0.90;;;34.50;41.60;;;;;;10465265;28;20223;-75
2023/05/06 09:17:22;;;;;;;1.77;1.10;;;34.80;40.50;;;;;;10478199;28;20219;-75
2023/05/06 09:22:26;;;;;;;3.93;1.10;;;35.50;39.70;;;;;;10463272;28;20223;-74
2023/05/06 09:27:28;;;;;;;2.43;1.00;;;36.50;38.10;;;;;;10463620;28;20235;-74
2023/05/06 09:32:29;;;;;;;1.30;1.03;;;37.10;36.40;;;;;;10463486;28;20246;-74
2023/05/06 09:37:30;;;;;;;4.20;0.90;;;35.30;38.20;;;;;;10468587;28;20249;-74
2023/05/06 09:42:31;;;;;;;3.13;1.13;;;35.10;39.00;;;;;;10471812;28;20224;-74
2023/05/06 09:47:33;;;;;;;1.77;1.00;;;37.50;36.30;;;;;;10478327;28;20299;-74
2023/05/06 09:52:35;;;;;;;0.73;0.73;;;39.20;32.20;;;;;;10478956;28;20262;-74
2023/05/06 09:57:37;;;;;;;1.30;0.90;;;39.80;31.70;;;;;;10470207;28;20713;-74
2023/05/06 10:02:39;;;;;;;0.83;0.57;;;40.40;30.70;;;;;;10477764;28;20289;-74
2023/05/06 10:07:43;;;;;;;1.37;1.03;;;40.70;29.60;;;;;;10476255;28;20227;-74
2023/05/06 10:12:45;;;;;;;1.30;0.87;;;41.10;30.00;;;;;;10470428;28;20208;-75
2023/05/06 10:17:48;;;;;;;1.90;0.80;;;41.30;28.80;;;;;;10477721;28;20215;-73
2023/05/06 10:23:24;;;;;;;1.90;1.00;;;41.30;29.00;;;;;;10477290;28;20212;-75
2023/05/06 10:28:26;;;;;;;2.20;1.02;;;41.90;28.70;;;;;;10474054;28;20234;-75
2023/05/06 10:33:28;;;;;;;0.60;0.60;;;42.10;28.50;;;;;;10471716;28;20224;-75
2023/05/06 10:38:48;;;;;;;3.27;1.27;;;40.10;30.10;;;;;;10474563;28;20625;-75
2023/05/06 10:43:55;;;;;;;1.43;0.87;;;40.80;30.60;;;;;;10484975;28;20223;-74
2023/05/06 10:49:05;;;;;;;1.63;0.90;;;41.70;29.00;;;;;;10468448;28;20224;-74
2023/05/06 10:54:10;;;;;;;0.57;0.57;;;38.10;32.40;;;;;;10476800;28;20273;-74
2023/05/06 10:59:11;;;;;;;1.47;0.63;;;36.10;34.90;;;;;;10474366;28;20208;-74
2023/05/06 11:04:18;;;;;;;1.87;1.00;;;37.10;34.70;;;;;;10469687;28;20273;-74
2023/05/06 11:09:21;;;;;;;2.80;0.73;;;39.60;31.10;;;;;;10469857;28;20311;-74
2023/05/06 11:14:42;;;;;;;2.83;0.90;;;39.50;30.40;;;;;;10470694;28;20286;-74
2023/05/06 11:19:43;;;;;;;1.20;0.80;;;39.60;31.40;;;;;;10481812;28;20709;-74
2023/05/06 11:24:43;;;;;;;2.70;1.03;;;40.20;29.40;;;;;;10465358;28;20247;-74
2023/05/06 11:29:44;;;;;;;0.80;0.50;;;39.80;29.80;;;;;;10467716;28;20227;-73
2023/05/06 11:34:44;;;;;;;0.97;0.60;;;38.50;31.20;;;;;;10473151;28;20224;-73
2023/05/06 11:39:47;;;;;;;0.50;0.50;;;36.60;31.80;;;;;;10478443;28;20215;-74
2023/05/06 11:44:48;;;;;;;2.03;0.60;;;34.90;35.20;;;;;;10465535;28;20223;-74
2023/05/06 11:49:55;;;;;;;1.20;0.73;;;33.20;37.30;;;;;;10466661;28;20234;-74
2023/05/06 11:54:55;;;;;;;2.97;1.00;;;32.20;39.30;;;;;;10472972;28;20298;-74
2023/05/06 11:59:56;;;;;;;4.80;0.77;;;31.30;41.40;;;;;;10465147;28;20246;-74
2023/05/06 12:04:57;;;;;;;0.87;0.80;;;30.60;41.50;;;;;;10468310;28;20203;-73
2023/05/06 12:10:02;;;;;;;1.53;1.07;;;30.30;43.30;;;;;;10474206;28;20223;-73
2023/05/06 12:15:03;;;;;;;0.93;0.70;;;29.70;43.00;;;;;;10470657;28;20586;-74
2023/05/06 12:20:04;;;;;;;1.27;0.70;;;29.60;43.30;;;;;;10466858;28;20252;-74
2023/05/06 12:25:15;;;;;;;1.70;0.63;;;29.30;44.40;;;;;;10472019;28;20226;-73
2023/05/06 12:30:28;;;;;;;0.60;0.50;;;28.90;44.30;;;;;;10466836;28;20236;-74
2023/05/06 12:35:30;;;;;;;0.60;0.50;;;28.50;44.80;;;;;;10468975;28;20332;-73
2023/05/06 12:40:31;;;;;;;0.83;0.50;;;28.30;45.60;;;;;;10469257;28;20234;-73
2023/05/06 12:45:32;;;;;;;0.60;0.40;;;27.90;46.60;;;;;;10471441;28;20218;-73
2023/05/06 12:50:40;;;;;;;1.27;0.67;;;27.80;46.10;;;;;;10464092;28;20256;-72
2023/05/06 12:55:41;;;;;;;1.40;1.30;;;27.80;45.80;;;;;;10482280;28;20702;-73
2023/05/06 13:00:41;;;;;;;2.57;0.50;;;27.80;45.90;;;;;;10467627;28;20230;-73
2023/05/06 13:05:42;;;;;;;0.80;0.50;;;27.30;46.20;;;;;;10471468;28;20709;-73
2023/05/06 13:10:43;;;;;;;0.70;0.70;;;27.40;46.40;;;;;;10463035;28;20275;-72
2023/05/06 13:15:43;;;;;;;1.30;0.90;;;26.70;47.40;;;;;;10484431;28;20245;-73
2023/05/06 13:20:44;;;;;;;2.07;0.60;;;26.40;48.50;;;;;;10471363;28;20581;-72
2023/05/06 13:25:45;;;;;;;2.30;0.80;;;26.50;47.40;;;;;;10470907;28;20231;-73
2023/05/06 13:30:45;;;;;;;1.47;0.67;;;26.30;48.40;;;;;;10484408;28;20763;-72
2023/05/06 13:35:46;;;;;;;1.10;0.60;;;26.90;47.90;;;;;;10477366;28;20245;-73
2023/05/06 13:40:50;;;;;;;1.10;0.50;;;27.20;46.30;;;;;;10470019;28;20231;-72
2023/05/06 13:45:51;;;;;;;1.30;0.60;;;26.90;46.10;;;;;;10478127;28;20223;-73
2023/05/06 13:50:52;;;;;;;0.47;0.40;;;27.00;47.20;;;;;;10471226;28;20251;-73
2023/05/06 13:55:53;;;;;;;1.13;0.73;;;26.90;46.60;;;;;;10478594;28;20483;-72
2023/05/06 14:00:53;;;;;;;0.77;0.60;;;27.00;46.60;;;;;;10476818;28;20227;-72
2023/05/06 14:05:54;;;;;;;1.43;0.70;;;27.10;47.30;;;;;;10477910;28;20225;-73
2023/05/06 14:10:55;;;;;;;1.03;0.60;;;26.90;47.30;;;;;;10474745;28;20265;-72
2023/05/06 14:15:55;;;;;;;3.03;0.73;;;26.90;47.40;;;;;;10470870;28;20223;-74
2023/05/06 14:20:56;;;;;;;0.80;0.70;;;26.90;48.50;;;;;;10475556;28;20219;-73
2023/05/06 14:25:57;;;;;;;15.67;1.23;;;26.80;48.80;;;;;;10469724;28;20236;-72
2023/05/06 14:30:58;;;;;;;1.63;1.13;;;26.60;48.30;;;;;;10474452;28;20238;-73
2023/05/06 14:36:02;;;;;;;1.67;0.90;;;26.60;48.80;;;;;;10481764;28;20698;-73
2023/05/06 14:41:02;;;;;;;5.40;1.30;;;26.50;48.20;;;;;;10476528;28;20664;-74
2023/05/06 14:46:03;;;;;;;1.67;0.80;;;26.60;48.40;;;;;;10473663;28;20227;-74
2023/05/06 14:51:06;;;;;;;2.10;0.80;;;26.80;48.60;;;;;;10475842;28;20235;-72
2023/05/06 14:56:09;;;;;;;0.70;0.70;;;26.70;48.10;;;;;;10470578;28;20220;-73
2023/05/06 15:01:10;;;;;;;0.97;0.60;;;26.60;48.20;;;;;;10471447;28;20258;-72
2023/05/06 15:06:11;;;;;;;1.87;0.90;;;26.40;48.60;;;;;;10472795;28;20729;-72
2023/05/06 15:11:11;;;;;;;1.97;0.90;;;26.20;49.30;;;;;;10472400;28;20231;-72
2023/05/06 15:16:12;;;;;;;1.70;0.60;;;26.00;49.80;;;;;;10474316;28;20311;-72
2023/05/06 15:21:13;;;;;;;5.97;0.90;;;26.00;50.80;;;;;;10475095;28;20229;-72
2023/05/06 15:26:13;;;;;;;1.80;0.73;;;25.90;51.20;;;;;;10470721;28;20235;-72
2023/05/06 15:31:14;;;;;;;1.33;0.80;;;25.90;51.20;;;;;;10466193;28;20700;-72
2023/05/06 15:36:14;;;;;;;1.87;0.80;;;25.90;51.00;;;;;;10468824;28;20226;-72
2023/05/06 15:41:15;;;;;;;1.77;1.50;;;25.70;51.40;;;;;;10473203;28;20226;-72
2023/05/06 15:46:15;;;;;;;1.53;1.20;;;25.60;52.20;;;;;;10468456;28;20315;-72
2023/05/06 15:51:17;;;;;;;4.43;0.90;;;25.50;52.20;;;;;;10477268;28;20223;-73
2023/05/06 15:56:18;;;;;;;2.60;0.90;;;25.40;53.30;;;;;;10467142;28;20702;-72
2023/05/06 16:01:18;;;;;;;2.87;0.63;;;25.10;53.20;;;;;;10469993;28;20249;-72
2023/05/06 16:06:19;;;;;;;1.07;0.93;;;25.00;53.50;;;;;;10467018;28;20303;-72
2023/05/06 16:11:19;;;;;;;2.27;1.00;;;24.90;53.00;;;;;;10475625;28;20357;-72
2023/05/06 16:16:20;;;;;;;1.17;0.80;;;24.80;53.30;;;;;;10467725;28;20326;-72
2023/05/06 16:21:20;;;;;;;1.63;1.00;;;24.70;54.10;;;;;;10469728;28;20294;-72
2023/05/06 16:26:21;;;;;;;4.13;0.93;;;24.60;54.40;;;;;;10472478;28;20312;-73
2023/05/06 16:31:22;;;;;;;1.63;0.80;;;24.60;53.50;;;;;;10466405;28;20222;-73
2023/05/06 16:36:22;;;;;;;3.57;0.90;;;24.50;54.00;;;;;;10468982;28;20314;-72
2023/05/06 16:41:23;;;;;;;2.37;1.00;;;24.40;54.40;;;;;;10467056;28;20242;-71
2023/05/06 16:46:24;;;;;;;4.07;1.27;;;24.30;54.20;;;;;;10471457;28;20233;-74
2023/05/06 16:51:25;;;;;;;2.63;1.07;;;24.10;55.20;;;;;;10466533;28;20302;-74
2023/05/06 16:56:26;;;;;;;2.03;1.20;;;23.80;55.20;;;;;;10470716;28;20749;-72
2023/05/06 17:01:29;;;;;;;1.13;0.53;;;23.70;55.30;;;;;;10481968;28;20220;-73
2023/05/06 17:06:30;;;;;;;1.50;0.70;;;23.60;55.50;;;;;;10461139;28;20563;-73
2023/05/06 17:11:31;;;;;;;1.43;0.80;;;23.60;55.30;;;;;;10463431;28;20311;-72
2023/05/06 17:16:31;;;;;;;1.97;0.90;;;23.40;57.50;;;;;;10467966;28;20851;-72
2023/05/06 17:21:32;;;;;;;2.70;0.70;;;23.20;58.20;;;;;;10465429;28;20719;-73
2023/05/06 17:26:33;;;;;;;2.23;1.00;;;23.00;59.00;;;;;;10477517;28;20444;-73
2023/05/06 17:31:34;;;;;;;3.00;0.90;;;22.90;59.70;;;;;;10464400;28;20221;-71
2023/05/06 17:36:34;;;;;;;3.40;1.00;;;22.80;59.80;;;;;;10469460;28;20345;-73
2023/05/06 17:41:35;;;;;;;2.30;1.00;;;22.70;60.50;;;;;;10469064;28;20252;-73
2023/05/06 17:46:36;;;;;;;1.57;0.87;;;22.60;61.50;;;;;;10471091;28;20933;-73
2023/05/06 17:51:36;;;;;;;1.70;1.00;;;22.50;61.50;;;;;;10469871;28;20222;-73
2023/05/06 17:56:37;;;;;;;3.07;1.00;;;22.40;62.00;;;;;;10476798;28;20250;-73
2023/05/06 18:01:38;;;;;;;4.87;1.10;;;22.30;62.80;;;;;;10474202;28;20215;-73
2023/05/06 18:06:42;;;;;;;2.87;0.80;;;22.20;62.70;;;;;;10474671;28;20255;-73
2023/05/06 18:11:43;;;;;;;2.03;1.10;;;22.10;63.60;;;;;;10476122;28;20281;-73
2023/05/06 18:16:44;;;;;;;1.90;1.00;;;21.90;64.60;;;;;;10468939;28;20223;-72
2023/05/06 18:21:45;;;;;;;1.73;0.83;;;21.80;65.50;;;;;;10481110;28;20231;-73
2023/05/06 18:26:45;;;;;;;1.73;1.23;;;21.70;66.30;;;;;;10468394;28;20227;-72
2023/05/06 18:31:46;;;;;;;1.13;0.80;;;21.60;67.10;;;;;;10475624;28;20678;-73
2023/05/06 18:36:46;;;;;;;1.00;0.80;;;21.50;67.70;;;;;;10467517;28;20284;-72
2023/05/06 18:41:50;;;;;;;2.83;1.07;;;21.40;67.90;;;;;;10474924;28;20686;-73
2023/05/06 18:46:50;;;;;;;4.10;1.10;;;21.40;68.70;;;;;;10470041;28;20227;-72
2023/05/06 18:51:52;;;;;;;4.53;1.53;;;21.30;69.60;;;;;;10473671;28;20215;-75
2023/05/06 18:56:57;;;;;;;2.20;1.00;;;21.20;70.40;;;;;;10473650;28;20219;-73
2023/05/06 19:01:57;;;;;;;2.83;1.30;;;21.20;71.10;;;;;;10475583;28;20236;-72
2023/05/06 19:06:58;;;;;;;5.07;1.47;;;21.10;71.60;;;;;;10473492;28;20231;-73
2023/05/06 19:11:59;;;;;;;2.83;1.90;;;21.00;72.40;;;;;;10466136;28;20766;-72
2023/05/06 19:17:01;;;;;;;2.30;1.57;;;20.90;73.00;;;;;;10471152;28;20284;-72
2023/05/06 19:22:01;;;;;;;3.10;1.90;;;20.80;73.40;;;;;;10473357;28;20215;-73
2023/05/06 19:27:02;;;;;;;3.60;1.90;;;20.80;73.90;;;;;;10472080;28;20695;-74
2023/05/06 19:32:03;;;;;;;4.57;1.90;;;20.60;74.50;;;;;;10472095;28;20223;-74
2023/05/06 19:37:03;;;;;;;2.20;1.80;;;20.50;75.20;;;;;;10464396;28;20222;-73
2023/05/06 19:42:04;;;;;;;3.30;1.90;;;20.40;76.30;;;;;;10472288;28;20215;-72
2023/05/06 19:47:05;;;;;;;2.83;1.90;;;20.30;77.00;;;;;;10468060;28;20222;-72
2023/05/06 19:52:08;;;;;;;3.90;1.90;;;20.30;77.50;;;;;;10478721;28;20223;-73
2023/05/06 19:57:11;;;;;;;3.10;1.90;;;20.30;77.60;;;;;;10468078;28;20298;-72
2023/05/06 20:02:15;;;;;;;5.00;1.93;;;20.30;78.30;;;;;;10467713;28;20219;-73
2023/05/06 20:07:16;;;;;;;5.60;2.60;;;20.30;78.70;;;;;;10476170;28;20220;-73
2023/05/06 20:12:16;;;;;;;4.93;2.53;;;20.30;78.90;;;;;;10467572;28;20219;-73
2023/05/06 20:17:17;;;;;;;4.03;2.40;;;20.20;79.10;;;;;;10468380;28;20563;-73
2023/05/06 20:22:18;;;;;;;5.20;2.13;;;20.10;79.10;;;;;;10470879;28;20219;-73
2023/05/06 20:27:20;;;;;;;2.53;1.97;;;20.10;79.50;;;;;;10466923;28;20232;-73
2023/05/06 20:32:20;;;;;;;4.00;1.90;;;20.00;80.40;;;;;;10469946;28;20324;-73
2023/05/06 20:37:21;;;;;;;3.57;2.20;;;19.90;80.20;;;;;;10470578;28;20318;-73
2023/05/06 20:42:21;;;;;;;3.33;1.90;;;19.90;80.90;;;;;;10467972;28;20223;-74
2023/05/06 20:47:22;;;;;;;6.10;2.70;;;19.90;81.60;;;;;;10465789;28;20703;-73
2023/05/06 20:52:23;;;;;;;6.07;2.40;;;19.80;81.60;;;;;;10472360;28;20629;-73
2023/05/06 20:57:23;;;;;;;6.17;2.83;;;19.60;82.70;;;;;;10475377;28;20222;-74
2023/05/06 21:02:25;;;;;;;3.13;1.97;;;19.50;83.60;;;;;;10477733;28;20326;-73
2023/05/06 21:07:25;;;;;;;9.80;3.80;;;19.50;84.30;;;;;;10466555;28;20228;-72
2023/05/06 21:12:26;;;;;;;7.73;3.37;;;19.40;85.00;;;;;;10467341;28;20219;-74
2023/05/06 21:17:27;;;;;;;4.30;2.23;;;19.20;86.40;;;;;;10465538;28;20491;-72
2023/05/06 21:22:28;;;;;;;5.43;2.70;;;19.00;87.50;;;;;;10471539;28;20223;-74
2023/05/06 21:27:28;;;;;;;11.17;3.47;;;18.80;88.80;;;;;;10473559;28;20230;-72
2023/05/06 21:32:31;;;;;;;8.03;3.20;;;18.70;89.50;;;;;;10470408;28;20218;-74
2023/05/06 21:37:34;;;;;;;3.43;2.23;;;18.50;90.30;;;;;;10477632;28;20214;-73
2023/05/06 21:42:35;;;;;;;7.40;3.13;;;18.50;90.70;;;;;;10471279;28;20219;-72
2023/05/06 21:47:35;;;;;;;7.90;3.03;;;18.40;90.80;;;;;;10477525;28;20588;-73
2023/05/06 21:52:37;;;;;;;5.43;2.80;;;18.30;91.40;;;;;;10470729;28;20300;-73
2023/05/06 21:57:37;;;;;;;4.40;2.63;;;18.30;91.80;;;;;;10485511;28;20288;-73
2023/05/06 22:02:38;;;;;;;7.53;2.90;;;18.10;92.10;;;;;;10477099;28;20583;-73
2023/05/06 22:07:39;;;;;;;3.60;2.20;;;18.00;92.50;;;;;;10477807;28;20223;-73
2023/05/06 22:12:40;;;;;;;2.80;1.97;;;17.90;92.90;;;;;;10471101;28;20219;-73
2023/05/06 22:17:41;;;;;;;2.60;1.67;;;17.80;93.40;;;;;;10476153;28;20266;-73
2023/05/06 22:22:41;;;;;;;2.70;1.80;;;17.70;94.00;;;;;;10477512;28;20254;-73
2023/05/06 22:27:42;;;;;;;3.37;1.43;;;17.50;94.60;;;;;;10475909;28;20227;-74
2023/05/06 22:32:43;;;;;;;1.27;1.17;;;17.30;95.40;;;;;;10469578;28;20219;-73
2023/05/06 22:37:44;;;;;;;2.77;1.80;;;17.20;96.40;;;;;;10477169;28;20219;-72
2023/05/06 22:42:45;;;;;;;5.67;1.90;;;17.20;97.30;;;;;;10471606;28;20229;-72
2023/05/06 22:47:45;;;;;;;3.83;1.70;;;17.20;98.40;;;;;;10480522;28;20310;-72
2023/05/06 22:52:46;;;;;;;1.83;1.40;;;17.20;99.20;;;;;;10467985;28;20578;-74
2023/05/06 22:57:48;;;;;;;2.43;1.17;;;17.30;99.90;;;;;;10466902;28;20223;-72
2023/05/06 23:02:49;;;;;;;1.60;1.50;;;17.30;99.90;;;;;;10476398;28;20251;-72
2023/05/06 23:07:50;;;;;;;5.80;1.57;;;17.30;99.90;;;;;;10475867;28;20251;-73
2023/05/06 23:12:50;;;;;;;2.00;1.50;;;17.30;99.90;;;;;;10474250;28;20218;-73
2023/05/06 23:17:51;;;;;;;4.00;1.40;;;17.30;99.90;;;;;;10466038;28;20242;-73
2023/05/06 23:22:51;;;;;;;2.23;1.30;;;17.20;99.90;;;;;;10473744;28;20318;-72
2023/05/06 23:27:52;;;;;;;3.87;1.50;;;17.20;99.90;;;;;;10481346;28;20263;-73
2023/05/06 23:32:52;;;;;;;1.50;1.40;;;17.20;99.90;;;;;;10466594;28;20725;-73
2023/05/06 23:37:53;;;;;;;2.67;1.70;;;17.00;99.90;;;;;;10474362;28;20225;-72
2023/05/06 23:42:54;;;;;;;1.70;1.60;;;17.10;99.90;;;;;;10476103;28;20827;-72
2023/05/06 23:47:55;;;;;;;1.50;1.40;;;17.10;99.90;;;;;;10480131;28;20284;-73
2023/05/06 23:52:56;;;;;;;2.00;1.80;;;17.10;99.90;;;;;;10466459;28;20211;-73
2023/05/06 23:57:56;;;;;;;1.90;1.53;;;17.10;99.90;;;;;;10477292;28;20229;-74
